Time;durP1;ratioP1;P1;durP2;ratioP2;P2;SDS_P1;SDS_P2;PMS_P1;PMS_P2;Temp;Humidity;BMP_temperature;BMP_pressure;BME280_temperature;BME280_humidity;BME280_pressure;Samples;Min_cycle;Max_cycle;Signal;HPM_P1;HPM_P2
2022/05/30 00:02:06;;;;;;;;;;;;;;;;;;6142223;23;19927;-87
2022/05/30 00:04:33;;;;;;;;;;;;;;;;;;6140773;23;20333;-87
2022/05/30 00:07:01;;;;;;;;;;;;;;;;;;6118540;23;19920;-87
2022/05/30 00:09:28;;;;;;;;;;;;;;;;;;6119012;23;19998;-87
2022/05/30 00:11:55;;;;;;;;;;;;;;;;;;6119576;23;19924;-87
2022/05/30 00:14:21;;;;;;;;;;;;;;;;;;6140846;23;20620;-88
2022/05/30 00:16:47;;;;;;;;;;;;;;;;;;6118196;23;19920;-87
2022/05/30 00:19:13;;;;;;;;;;;;;;;;;;6118127;23;19992;-88
2022/05/30 00:21:41;;;;;;;;;;;;;;;;;;6141975;23;20015;-87
2022/05/30 00:24:07;;;;;;;;;;;;;;;;;;6169760;23;19952;-87
2022/05/30 00:26:34;;;;;;;;;;;;;;;;;;6117048;23;19947;-87
2022/05/30 00:29:01;;;;;;;;;;;;;;;;;;6145399;23;19936;-88
2022/05/30 00:31:29;;;;;;;;;;;;;;;;;;6142388;23;20011;-87
2022/05/30 00:33:55;;;;;;;;;;;;;;;;;;6144780;23;19970;-87
2022/05/30 00:36:22;;;;;;;;;;;;;;;;;;6140617;23;20330;-88
2022/05/30 00:38:50;;;;;;;;;;;;;;;;;;6144198;23;20246;-88
2022/05/30 00:41:17;;;;;;;;;;;;;;;;;;6116792;23;19916;-88
2022/05/30 00:43:46;;;;;;;;;;;;;;;;;;6116115;23;19972;-87
2022/05/30 00:46:19;;;;;;;;;;;;;;;;;;6118604;23;20023;-87
2022/05/30 00:48:55;;;;;;;;;;;;;;;;;;6169718;23;20026;-87
2022/05/30 00:51:22;;;;;;;;;;;;;;;;;;6117882;23;19950;-87
2022/05/30 00:53:48;;;;;;;;;;;;;;;;;;6121665;23;19921;-87
2022/05/30 00:56:16;;;;;;;;;;;;;;;;;;6119682;23;19921;-88
2022/05/30 00:58:42;;;;;;;;;;;;;;;;;;6115859;23;19924;-87
2022/05/30 01:01:09;;;;;;;;;;;;;;;;;;6168799;23;19929;-87
2022/05/30 01:06:33;;;;;;;;;;;;;;;;;;6140386;23;19975;-88
2022/05/30 01:09:00;;;;;;;;;;;;;;;;;;6142007;23;19934;-87
2022/05/30 01:11:28;;;;;;;;;;;;;;;;;;6117220;23;19920;-88
2022/05/30 01:13:54;;;;;;;;;;;;;;;;;;6141325;23;20103;-88
2022/05/30 01:16:22;;;;;;;;;;;;;;;;;;6142181;23;19934;-88
2022/05/30 01:18:51;;;;;;;;;;;;;;;;;;6143190;23;19920;-87
2022/05/30 01:21:18;;;;;;;;;;;;;;;;;;6117940;23;19971;-87
2022/05/30 01:23:44;;;;;;;;;;;;;;;;;;6112294;23;19955;-87
2022/05/30 01:26:11;;;;;;;;;;;;;;;;;;6138917;23;19952;-88
2022/05/30 01:28:38;;;;;;;;;;;;;;;;;;6162731;23;20748;-87
2022/05/30 01:31:06;;;;;;;;;;;;;;;;;;6141439;23;19927;-87
2022/05/30 01:33:33;;;;;;;;;;;;;;;;;;6141379;23;19920;-87
2022/05/30 01:36:00;;;;;;;;;;;;;;;;;;6141533;23;19966;-87
2022/05/30 01:38:28;;;;;;;;;;;;;;;;;;6140426;23;19926;-87
2022/05/30 01:40:55;;;;;;;;;;;;;;;;;;6143082;23;19991;-87
2022/05/30 01:43:21;;;;;;;;;;;;;;;;;;6113565;23;19975;-87
2022/05/30 01:45:58;;;;;;;;;;;;;;;;;;6142959;23;19920;-87
2022/05/30 01:48:24;;;;;;;;;;;;;;;;;;6134584;23;19964;-87
2022/05/30 01:50:50;;;;;;;;;;;;;;;;;;6167719;23;20306;-87
2022/05/30 01:53:19;;;;;;;;;;;;;;;;;;6190492;23;19931;-87
2022/05/30 01:55:45;;;;;;;;;;;;;;;;;;6146450;23;19920;-88
2022/05/30 01:58:11;;;;;;;;;;;;;;;;;;6198937;23;19920;-88
2022/05/30 02:00:37;;;;;;;;;;;;;;;;;;6144170;23;19920;-88
2022/05/30 02:03:05;;;;;;;;;;;;;;;;;;6172724;23;19969;-88
2022/05/30 02:05:33;;;;;;;;;;;;;;;;;;6170308;23;20295;-88
2022/05/30 02:08:04;;;;;;;;;;;;;;;;;;6174511;23;19920;-89
2022/05/30 02:10:31;;;;;;;;;;;;;;;;;;6146736;23;19930;-88
2022/05/30 02:12:58;;;;;;;;;;;;;;;;;;6172426;23;20006;-88
2022/05/30 02:15:25;;;;;;;;;;;;;;;;;;6170775;23;20407;-88
2022/05/30 02:17:52;;;;;;;;;;;;;;;;;;6173644;23;19919;-89
2022/05/30 02:20:18;;;;;;;;;;;;;;;;;;6149655;23;19916;-88
2022/05/30 02:22:45;;;;;;;;;;;;;;;;;;6171091;23;20355;-88
2022/05/30 02:25:24;;;;;;;;;;;;;;;;;;6174526;23;19930;-88
2022/05/30 02:27:50;;;;;;;;;;;;;;;;;;6148531;23;19923;-88
2022/05/30 02:30:18;;;;;;;;;;;;;;;;;;6174817;23;19951;-88
2022/05/30 02:32:44;;;;;;;;;;;;;;;;;;6172928;23;19920;-88
2022/05/30 02:37:56;;;;;;;;;;;;;;;;;;6172236;23;19927;-88
2022/05/30 02:40:21;;;;;;;;;;;;;;;;;;6169441;23;19926;-88
2022/05/30 02:42:49;;;;;;;;;;;;;;;;;;6172692;23;20225;-88
2022/05/30 02:45:18;;;;;;;;;;;;;;;;;;6173335;23;19927;-88
2022/05/30 02:47:46;;;;;;;;;;;;;;;;;;6172075;23;19966;-88
2022/05/30 02:50:14;;;;;;;;;;;;;;;;;;6147285;23;19931;-87
2022/05/30 02:52:41;;;;;;;;;;;;;;;;;;6130519;23;19928;-88
2022/05/30 02:55:08;;;;;;;;;;;;;;;;;;6120671;23;19920;-88
2022/05/30 02:57:34;;;;;;;;;;;;;;;;;;6141101;23;19920;-89
2022/05/30 03:00:02;;;;;;;;;;;;;;;;;;6119348;23;19916;-88
2022/05/30 03:02:29;;;;;;;;;;;;;;;;;;6142506;23;19927;-88
2022/05/30 03:04:55;;;;;;;;;;;;;;;;;;6141977;23;19927;-87
2022/05/30 03:07:24;;;;;;;;;;;;;;;;;;6115078;23;20110;-88
2022/05/30 03:09:51;;;;;;;;;;;;;;;;;;6141758;23;19943;-88
2022/05/30 03:12:17;;;;;;;;;;;;;;;;;;6119253;23;20006;-88
2022/05/30 03:14:45;;;;;;;;;;;;;;;;;;6115707;23;19920;-88
2022/05/30 03:17:12;;;;;;;;;;;;;;;;;;6119054;23;19928;-88
2022/05/30 03:19:39;;;;;;;;;;;;;;;;;;6117951;23;19921;-88
2022/05/30 03:22:05;;;;;;;;;;;;;;;;;;6120524;23;20412;-88
2022/05/30 03:24:31;;;;;;;;;;;;;;;;;;6168128;23;19927;-88
2022/05/30 03:26:57;;;;;;;;;;;;;;;;;;6144108;23;19956;-88
2022/05/30 03:29:23;;;;;;;;;;;;;;;;;;6140627;23;20502;-88
2022/05/30 03:31:53;;;;;;;;;;;;;;;;;;6118698;23;19943;-88
2022/05/30 03:34:23;;;;;;;;;;;;;;;;;;6118936;23;19959;-88
2022/05/30 03:36:49;;;;;;;;;;;;;;;;;;6116555;23;20301;-88
2022/05/30 03:39:30;;;;;;;;;;;;;;;;;;6072428;23;19925;-88
2022/05/30 03:41:57;;;;;;;;;;;;;;;;;;6026588;23;19921;-89
2022/05/30 03:44:23;;;;;;;;;;;;;;;;;;6051407;23;19921;-89
2022/05/30 03:46:50;;;;;;;;;;;;;;;;;;6054082;23;19926;-89
2022/05/30 03:49:16;;;;;;;;;;;;;;;;;;6028880;23;19932;-89
2022/05/30 03:51:42;;;;;;;;;;;;;;;;;;6030266;23;19921;-88
2022/05/30 03:54:18;;;;;;;;;;;;;;;;;;6055213;23;19992;-87
2022/05/30 03:56:44;;;;;;;;;;;;;;;;;;6049849;23;19921;-87
2022/05/30 03:59:10;;;;;;;;;;;;;;;;;;6028092;23;19944;-87
2022/05/30 04:01:36;;;;;;;;;;;;;;;;;;6050836;23;19925;-87
2022/05/30 04:04:02;;;;;;;;;;;;;;;;;;6052420;23;19988;-87
2022/05/30 04:06:28;;;;;;;;;;;;;;;;;;6026327;23;19921;-87
2022/05/30 04:08:54;;;;;;;;;;;;;;;;;;6053209;23;19929;-87
2022/05/30 04:11:20;;;;;;;;;;;;;;;;;;6122119;23;19978;-87
2022/05/30 04:13:46;;;;;;;;;;;;;;;;;;6120196;23;19999;-87
2022/05/30 04:16:12;;;;;;;;;;;;;;;;;;6120926;23;19916;-87
2022/05/30 04:18:38;;;;;;;;;;;;;;;;;;6115934;23;19982;-87
2022/05/30 04:21:07;;;;;;;;;;;;;;;;;;6142283;23;20341;-88
2022/05/30 04:23:33;;;;;;;;;;;;;;;;;;6115513;23;19920;-87
2022/05/30 04:25:59;;;;;;;;;;;;;;;;;;6119722;23;19931;-87
2022/05/30 04:28:25;;;;;;;;;;;;;;;;;;6115961;23;20722;-87
2022/05/30 04:30:51;;;;;;;;;;;;;;;;;;6119214;23;20023;-87
2022/05/30 04:33:19;;;;;;;;;;;;;;;;;;6115859;23;20312;-87
2022/05/30 04:35:45;;;;;;;;;;;;;;;;;;6117158;23;20230;-87
2022/05/30 04:38:10;;;;;;;;;;;;;;;;;;6140188;23;19927;-87
2022/05/30 04:40:36;;;;;;;;;;;;;;;;;;6141405;23;19923;-87
2022/05/30 04:43:02;;;;;;;;;;;;;;;;;;6118959;23;19920;-87
2022/05/30 04:45:28;;;;;;;;;;;;;;;;;;6114287;23;19975;-87
2022/05/30 04:47:54;;;;;;;;;;;;;;;;;;6141774;23;20303;-87
2022/05/30 04:50:20;;;;;;;;;;;;;;;;;;6143873;23;20513;-87
2022/05/30 04:52:46;;;;;;;;;;;;;;;;;;6146827;23;20378;-87
2022/05/30 04:55:12;;;;;;;;;;;;;;;;;;6204982;23;20390;-87
2022/05/30 04:57:38;;;;;;;;;;;;;;;;;;6177775;23;19985;-88
2022/05/30 05:00:05;;;;;;;;;;;;;;;;;;6177997;23;19974;-88
2022/05/30 05:02:31;;;;;;;;;;;;;;;;;;6203745;23;19919;-87
2022/05/30 05:05:00;;;;;;;;;;;;;;;;;;6181881;23;19927;-88
2022/05/30 05:07:25;;;;;;;;;;;;;;;;;;6201235;23;19915;-88
2022/05/30 05:09:52;;;;;;;;;;;;;;;;;;6229974;22;20286;-88
2022/05/30 05:12:18;;;;;;;;;;;;;;;;;;6179854;23;20347;-88
2022/05/30 05:14:46;;;;;;;;;;;;;;;;;;6201573;23;19920;-88
2022/05/30 05:17:12;;;;;;;;;;;;;;;;;;6176893;23;19920;-88
2022/05/30 05:19:38;;;;;;;;;;;;;;;;;;6202587;23;20017;-88
2022/05/30 05:22:05;;;;;;;;;;;;;;;;;;6180153;23;20217;-87
2022/05/30 05:24:31;;;;;;;;;;;;;;;;;;6175446;23;19920;-88
2022/05/30 05:26:57;;;;;;;;;;;;;;;;;;6203145;23;20298;-88
2022/05/30 05:29:23;;;;;;;;;;;;;;;;;;6198254;23;20792;-88
2022/05/30 05:31:49;;;;;;;;;;;;;;;;;;6203233;23;19926;-87
2022/05/30 05:34:15;;;;;;;;;;;;;;;;;;6203126;23;19950;-88
2022/05/30 05:36:41;;;;;;;;;;;;;;;;;;6175634;23;19915;-88
2022/05/30 05:39:07;;;;;;;;;;;;;;;;;;6176565;23;19926;-88
2022/05/30 05:41:33;;;;;;;;;;;;;;;;;;6204384;23;19926;-87
2022/05/30 05:43:59;;;;;;;;;;;;;;;;;;6207468;23;19998;-87
2022/05/30 05:46:25;;;;;;;;;;;;;;;;;;6179209;23;19938;-87
2022/05/30 05:48:51;;;;;;;;;;;;;;;;;;6180503;23;19930;-87
2022/05/30 05:51:18;;;;;;;;;;;;;;;;;;6183511;23;19947;-87
2022/05/30 05:53:44;;;;;;;;;;;;;;;;;;6181040;23;20344;-87
2022/05/30 05:56:10;;;;;;;;;;;;;;;;;;6204332;23;19969;-88
2022/05/30 05:58:36;;;;;;;;;;;;;;;;;;6172823;23;19916;-87
2022/05/30 06:01:02;;;;;;;;;;;;;;;;;;6201590;23;19919;-88
2022/05/30 06:03:28;;;;;;;;;;;;;;;;;;6197997;23;19920;-88
2022/05/30 06:05:54;;;;;;;;;;;;;;;;;;6200816;23;19920;-88
2022/05/30 06:08:20;;;;;;;;;;;;;;;;;;6198126;23;19927;-87
2022/05/30 06:13:30;;;;;;;;;;;;;;;;;;6200495;23;20355;-88
2022/05/30 06:15:56;;;;;;;;;;;;;;;;;;6176053;23;19919;-88
2022/05/30 06:18:22;;;;;;;;;;;;;;;;;;6176476;23;19990;-88
2022/05/30 06:20:48;;;;;;;;;;;;;;;;;;6202452;23;19919;-88
2022/05/30 06:23:14;;;;;;;;;;;;;;;;;;6201285;23;19926;-88
2022/05/30 06:25:42;;;;;;;;;;;;;;;;;;6176946;23;20787;-88
2022/05/30 06:28:08;;;;;;;;;;;;;;;;;;6205215;23;19920;-88
2022/05/30 06:30:34;;;;;;;;;;;;;;;;;;6200607;23;19962;-88
2022/05/30 06:33:00;;;;;;;;;;;;;;;;;;6204874;23;20251;-89
2022/05/30 06:35:26;;;;;;;;;;;;;;;;;;6201618;23;20349;-89
2022/05/30 06:37:52;;;;;;;;;;;;;;;;;;6178471;23;19922;-88
2022/05/30 06:40:18;;;;;;;;;;;;;;;;;;6180155;23;20252;-89
2022/05/30 06:42:47;;;;;;;;;;;;;;;;;;6175332;23;19923;-88
2022/05/30 06:45:13;;;;;;;;;;;;;;;;;;6177568;23;19920;-89
2022/05/30 06:47:39;;;;;;;;;;;;;;;;;;6175307;23;20384;-89
2022/05/30 06:50:05;;;;;;;;;;;;;;;;;;6207905;23;20256;-88
2022/05/30 06:52:30;;;;;;;;;;;;;;;;;;6234999;22;19961;-88
2022/05/30 06:54:58;;;;;;;;;;;;;;;;;;6179502;23;19915;-88
2022/05/30 07:00:21;;;;;;;;;;;;;;;;;;6207911;23;19926;-88
2022/05/30 07:02:46;;;;;;;;;;;;;;;;;;6235769;23;19987;-88
2022/05/30 07:05:12;;;;;;;;;;;;;;;;;;6211359;23;19919;-88
2022/05/30 07:07:38;;;;;;;;;;;;;;;;;;6206213;23;19985;-89
2022/05/30 07:10:04;;;;;;;;;;;;;;;;;;6183511;23;20194;-88
2022/05/30 07:12:30;;;;;;;;;;;;;;;;;;6204901;23;19968;-88
2022/05/30 07:14:56;;;;;;;;;;;;;;;;;;6207471;23;19951;-88
2022/05/30 07:17:24;;;;;;;;;;;;;;;;;;6181128;23;20046;-88
2022/05/30 07:19:50;;;;;;;;;;;;;;;;;;6182986;23;19919;-88
2022/05/30 07:22:17;;;;;;;;;;;;;;;;;;6208518;23;19919;-88
2022/05/30 07:24:43;;;;;;;;;;;;;;;;;;6183637;23;19920;-88
2022/05/30 07:27:12;;;;;;;;;;;;;;;;;;6187660;23;19970;-88
2022/05/30 07:29:38;;;;;;;;;;;;;;;;;;6183920;23;20367;-88
2022/05/30 07:32:04;;;;;;;;;;;;;;;;;;6210838;23;19926;-88
2022/05/30 07:34:30;;;;;;;;;;;;;;;;;;6207648;23;19920;-88
2022/05/30 07:36:56;;;;;;;;;;;;;;;;;;6208953;23;19923;-88
2022/05/30 07:39:22;;;;;;;;;;;;;;;;;;6208546;23;19926;-88
2022/05/30 07:41:48;;;;;;;;;;;;;;;;;;6209480;23;20407;-88
2022/05/30 07:44:14;;;;;;;;;;;;;;;;;;6185425;23;20364;-88
2022/05/30 07:46:42;;;;;;;;;;;;;;;;;;6182688;23;20030;-88
2022/05/30 07:49:08;;;;;;;;;;;;;;;;;;6185452;23;20028;-88
2022/05/30 07:51:34;;;;;;;;;;;;;;;;;;6183408;23;19947;-88
2022/05/30 07:54:00;;;;;;;;;;;;;;;;;;6209554;23;19919;-89
2022/05/30 07:56:27;;;;;;;;;;;;;;;;;;6181941;23;20015;-88
2022/05/30 07:58:53;;;;;;;;;;;;;;;;;;6183532;23;19920;-88
2022/05/30 08:01:18;;;;;;;;;;;;;;;;;;6208524;23;19921;-88
2022/05/30 08:03:47;;;;;;;;;;;;;;;;;;6184720;23;20190;-88
2022/05/30 08:06:13;;;;;;;;;;;;;;;;;;6210110;23;19919;-88
2022/05/30 08:08:39;;;;;;;;;;;;;;;;;;6180632;23;19938;-88
2022/05/30 08:11:05;;;;;;;;;;;;;;;;;;6182479;23;20400;-88
2022/05/30 08:13:31;;;;;;;;;;;;;;;;;;6180456;23;20316;-88
2022/05/30 08:15:57;;;;;;;;;;;;;;;;;;6210766;23;20352;-89
2022/05/30 08:18:23;;;;;;;;;;;;;;;;;;6182590;23;20339;-88
2022/05/30 08:20:49;;;;;;;;;;;;;;;;;;6208487;23;19920;-88
2022/05/30 08:23:15;;;;;;;;;;;;;;;;;;6207865;23;19974;-89
2022/05/30 08:25:43;;;;;;;;;;;;;;;;;;6206435;23;19923;-88
2022/05/30 08:28:09;;;;;;;;;;;;;;;;;;6207471;23;19916;-88
2022/05/30 08:30:35;;;;;;;;;;;;;;;;;;6205675;23;19994;-88
2022/05/30 08:33:01;;;;;;;;;;;;;;;;;;6207961;23;19916;-88
2022/05/30 08:35:27;;;;;;;;;;;;;;;;;;6204585;23;20217;-89
2022/05/30 08:37:52;;;;;;;;;;;;;;;;;;6183411;23;19927;-88
2022/05/30 08:43:03;;;;;;;;;;;;;;;;;;6209276;23;19926;-88
2022/05/30 08:45:29;;;;;;;;;;;;;;;;;;6207129;23;20003;-88
2022/05/30 08:47:55;;;;;;;;;;;;;;;;;;6209810;23;19930;-88
2022/05/30 08:50:22;;;;;;;;;;;;;;;;;;6207873;23;19923;-89
2022/05/30 08:52:48;;;;;;;;;;;;;;;;;;6183194;23;19923;-88
2022/05/30 08:55:14;;;;;;;;;;;;;;;;;;6183487;23;19969;-89
2022/05/30 08:57:50;;;;;;;;;;;;;;;;;;6206913;23;19930;-89
2022/05/30 09:00:16;;;;;;;;;;;;;;;;;;6183932;23;19926;-89
2022/05/30 09:02:42;;;;;;;;;;;;;;;;;;6181992;23;19994;-89
2022/05/30 09:05:08;;;;;;;;;;;;;;;;;;6185256;23;19968;-89
2022/05/30 09:07:34;;;;;;;;;;;;;;;;;;6181167;23;19919;-88
2022/05/30 09:10:00;;;;;;;;;;;;;;;;;;6183131;23;20025;-89
2022/05/30 09:12:26;;;;;;;;;;;;;;;;;;6206894;23;19919;-89
2022/05/30 09:14:52;;;;;;;;;;;;;;;;;;6184656;23;20279;-89
2022/05/30 09:17:18;;;;;;;;;;;;;;;;;;6184983;23;19916;-89
2022/05/30 09:19:44;;;;;;;;;;;;;;;;;;6184068;23;19919;-88
2022/05/30 09:22:10;;;;;;;;;;;;;;;;;;6185350;23;19919;-89
2022/05/30 09:24:36;;;;;;;;;;;;;;;;;;6208841;23;19923;-89
2022/05/30 09:27:02;;;;;;;;;;;;;;;;;;6184250;23;19939;-89
2022/05/30 09:29:29;;;;;;;;;;;;;;;;;;6181322;23;19924;-88
2022/05/30 09:31:55;;;;;;;;;;;;;;;;;;6184008;23;19926;-89
2022/05/30 09:34:21;;;;;;;;;;;;;;;;;;6181151;23;20610;-89
2022/05/30 09:36:47;;;;;;;;;;;;;;;;;;6183483;23;19916;-89
2022/05/30 09:39:13;;;;;;;;;;;;;;;;;;6183963;23;19919;-89
2022/05/30 09:41:39;;;;;;;;;;;;;;;;;;6180726;23;20067;-89
2022/05/30 09:44:06;;;;;;;;;;;;;;;;;;6182384;23;19920;-89
2022/05/30 09:46:33;;;;;;;;;;;;;;;;;;6207522;23;19919;-89
2022/05/30 09:49:01;;;;;;;;;;;;;;;;;;6182727;23;19924;-89
2022/05/30 09:51:27;;;;;;;;;;;;;;;;;;6206214;23;19920;-89
2022/05/30 09:53:53;;;;;;;;;;;;;;;;;;6182502;23;19973;-88
2022/05/30 09:56:19;;;;;;;;;;;;;;;;;;6206996;23;19977;-88
2022/05/30 09:58:45;;;;;;;;;;;;;;;;;;6183940;23;19915;-88
2022/05/30 10:01:11;;;;;;;;;;;;;;;;;;6183043;23;19926;-88
2022/05/30 10:03:37;;;;;;;;;;;;;;;;;;6203344;23;20256;-89
2022/05/30 10:06:03;;;;;;;;;;;;;;;;;;6208476;23;20304;-89
2022/05/30 10:08:30;;;;;;;;;;;;;;;;;;6178939;23;20002;-89
2022/05/30 10:10:59;;;;;;;;;;;;;;;;;;6183411;23;19920;-89
2022/05/30 10:13:25;;;;;;;;;;;;;;;;;;6181210;23;20010;-89
2022/05/30 10:15:51;;;;;;;;;;;;;;;;;;6208320;23;19955;-89
2022/05/30 10:18:17;;;;;;;;;;;;;;;;;;6182521;23;20359;-89
2022/05/30 10:20:43;;;;;;;;;;;;;;;;;;6180647;23;20316;-89
2022/05/30 10:28:39;;;;;;;;;;;;;;;;;;6205109;23;19924;-89
2022/05/30 10:31:05;;;;;;;;;;;;;;;;;;6207791;23;19947;-89
2022/05/30 10:33:31;;;;;;;;;;;;;;;;;;6206497;23;19919;-89
2022/05/30 10:35:57;;;;;;;;;;;;;;;;;;6182729;23;20259;-89
2022/05/30 10:38:23;;;;;;;;;;;;;;;;;;6180874;23;19919;-89
2022/05/30 10:40:49;;;;;;;;;;;;;;;;;;6183731;23;20282;-89
2022/05/30 10:43:16;;;;;;;;;;;;;;;;;;6208115;23;19916;-89
2022/05/30 10:45:42;;;;;;;;;;;;;;;;;;6180677;23;19946;-89
2022/05/30 10:48:08;;;;;;;;;;;;;;;;;;6207629;23;19919;-89
2022/05/30 10:50:43;;;;;;;;;;;;;;;;;;6181543;23;19931;-89
2022/05/30 10:53:09;;;;;;;;;;;;;;;;;;6207351;23;19951;-89
2022/05/30 10:55:35;;;;;;;;;;;;;;;;;;6204900;23;19926;-89
2022/05/30 10:58:01;;;;;;;;;;;;;;;;;;6182449;23;19923;-89
2022/05/30 11:00:27;;;;;;;;;;;;;;;;;;6180433;23;19919;-89
2022/05/30 11:02:53;;;;;;;;;;;;;;;;;;6208243;23;19919;-89
2022/05/30 11:05:19;;;;;;;;;;;;;;;;;;6181776;23;20359;-89
2022/05/30 11:07:45;;;;;;;;;;;;;;;;;;6207458;23;20340;-89
2022/05/30 11:10:11;;;;;;;;;;;;;;;;;;6207541;23;19950;-89
2022/05/30 11:12:38;;;;;;;;;;;;;;;;;;6181184;23;19942;-89
2022/05/30 11:15:04;;;;;;;;;;;;;;;;;;6207327;23;19926;-89
2022/05/30 11:17:30;;;;;;;;;;;;;;;;;;6180318;23;19915;-89
2022/05/30 11:19:56;;;;;;;;;;;;;;;;;;6183761;23;19991;-89
2022/05/30 11:22:22;;;;;;;;;;;;;;;;;;6205643;23;19915;-89
2022/05/30 11:24:48;;;;;;;;;;;;;;;;;;6209366;23;20229;-89
2022/05/30 11:27:14;;;;;;;;;;;;;;;;;;6184988;23;20240;-89
2022/05/30 11:29:40;;;;;;;;;;;;;;;;;;6207301;23;19950;-88
2022/05/30 11:32:07;;;;;;;;;;;;;;;;;;6207830;23;19922;-89
2022/05/30 11:34:35;;;;;;;;;;;;;;;;;;6204005;23;19919;-89
2022/05/30 11:37:03;;;;;;;;;;;;;;;;;;6207495;23;19926;-89
2022/05/30 11:39:30;;;;;;;;;;;;;;;;;;6206939;23;19945;-89
2022/05/30 11:41:59;;;;;;;;;;;;;;;;;;6207333;23;19947;-89
2022/05/30 11:44:25;;;;;;;;;;;;;;;;;;6201323;23;20295;-89
2022/05/30 11:46:52;;;;;;;;;;;;;;;;;;6209937;23;19919;-89
2022/05/30 11:49:18;;;;;;;;;;;;;;;;;;6184349;23;19924;-88
2022/05/30 11:51:44;;;;;;;;;;;;;;;;;;6182790;23;19920;-88
2022/05/30 11:54:10;;;;;;;;;;;;;;;;;;6183030;23;19998;-89
2022/05/30 11:56:36;;;;;;;;;;;;;;;;;;6205792;23;19919;-89
2022/05/30 11:59:02;;;;;;;;;;;;;;;;;;6182966;23;19920;-88
2022/05/30 12:01:28;;;;;;;;;;;;;;;;;;6180220;23;19937;-88
2022/05/30 12:03:54;;;;;;;;;;;;;;;;;;6186215;23;19953;-89
2022/05/30 12:06:20;;;;;;;;;;;;;;;;;;6182156;23;20351;-88
2022/05/30 12:08:46;;;;;;;;;;;;;;;;;;6209328;23;19923;-88
2022/05/30 12:11:12;;;;;;;;;;;;;;;;;;6208845;23;19930;-89
2022/05/30 12:13:38;;;;;;;;;;;;;;;;;;6181365;23;20516;-88
2022/05/30 12:16:04;;;;;;;;;;;;;;;;;;6210320;23;19919;-88
2022/05/30 12:24:00;;;;;;;;;;;;;;;;;;6206732;23;19952;-89
2022/05/30 12:26:26;;;;;;;;;;;;;;;;;;6178245;23;19923;-89
2022/05/30 12:28:52;;;;;;;;;;;;;;;;;;6207611;23;19934;-89
2022/05/30 12:31:18;;;;;;;;;;;;;;;;;;6206993;23;19920;-89
2022/05/30 12:33:44;;;;;;;;;;;;;;;;;;6205125;23;19961;-88
2022/05/30 12:36:10;;;;;;;;;;;;;;;;;;6183124;23;20358;-89
2022/05/30 12:38:37;;;;;;;;;;;;;;;;;;6178751;23;20248;-88
2022/05/30 12:41:03;;;;;;;;;;;;;;;;;;6207510;23;19927;-89
2022/05/30 12:43:29;;;;;;;;;;;;;;;;;;6205882;23;19919;-88
2022/05/30 12:45:55;;;;;;;;;;;;;;;;;;6207272;23;19916;-88
2022/05/30 12:48:22;;;;;;;;;;;;;;;;;;6180676;23;19994;-89
2022/05/30 12:50:50;;;;;;;;;;;;;;;;;;6207626;23;19986;-88
2022/05/30 12:53:16;;;;;;;;;;;;;;;;;;6236001;22;20331;-89
2022/05/30 12:55:42;;;;;;;;;;;;;;;;;;6181604;23;19923;-88
2022/05/30 12:58:07;;;;;;;;;;;;;;;;;;6209086;23;20351;-88
2022/05/30 13:00:33;;;;;;;;;;;;;;;;;;6180573;23;19923;-88
2022/05/30 13:02:59;;;;;;;;;;;;;;;;;;6209753;23;19923;-89
2022/05/30 13:05:25;;;;;;;;;;;;;;;;;;6205254;23;19920;-89
2022/05/30 13:07:51;;;;;;;;;;;;;;;;;;6209476;23;19958;-88
2022/05/30 13:10:17;;;;;;;;;;;;;;;;;;6182451;23;19924;-88
2022/05/30 13:12:53;;;;;;;;;;;;;;;;;;6207776;23;19916;-89
2022/05/30 13:15:19;;;;;;;;;;;;;;;;;;6207911;23;19920;-89
2022/05/30 13:17:46;;;;;;;;;;;;;;;;;;6208989;23;19947;-90
2022/05/30 13:20:12;;;;;;;;;;;;;;;;;;6184146;23;19919;-90
2022/05/30 13:22:38;;;;;;;;;;;;;;;;;;6206235;23;19919;-89
2022/05/30 13:25:04;;;;;;;;;;;;;;;;;;6208938;23;19927;-89
2022/05/30 13:27:30;;;;;;;;;;;;;;;;;;6207544;23;19920;-89
2022/05/30 13:29:56;;;;;;;;;;;;;;;;;;6208975;23;19930;-90
2022/05/30 13:32:22;;;;;;;;;;;;;;;;;;6182452;23;20336;-90
2022/05/30 13:34:48;;;;;;;;;;;;;;;;;;6184754;23;20414;-90
2022/05/30 13:37:14;;;;;;;;;;;;;;;;;;6184078;23;19920;-89
2022/05/30 13:39:40;;;;;;;;;;;;;;;;;;6206841;23;19919;-89
2022/05/30 13:42:06;;;;;;;;;;;;;;;;;;6207921;23;19994;-89
2022/05/30 13:47:20;;;;;;;;;;;;;;;;;;6203905;23;19974;-92
2022/05/30 13:49:46;;;;;;;;;;;;;;;;;;6183717;23;19924;-89
2022/05/30 13:52:12;;;;;;;;;;;;;;;;;;6206568;23;19930;-89
2022/05/30 13:54:38;;;;;;;;;;;;;;;;;;6230155;23;20378;-90
2022/05/30 13:57:04;;;;;;;;;;;;;;;;;;6209119;23;20018;-90
2022/05/30 13:59:30;;;;;;;;;;;;;;;;;;6178077;23;19924;-90
2022/05/30 14:01:56;;;;;;;;;;;;;;;;;;6181444;23;20104;-90
2022/05/30 14:04:22;;;;;;;;;;;;;;;;;;6202507;23;19927;-90
2022/05/30 14:06:48;;;;;;;;;;;;;;;;;;6176514;23;19920;-89
2022/05/30 14:09:14;;;;;;;;;;;;;;;;;;6201941;23;19923;-89
2022/05/30 14:11:40;;;;;;;;;;;;;;;;;;6175804;23;20342;-90
2022/05/30 14:14:06;;;;;;;;;;;;;;;;;;6180161;23;19938;-90
2022/05/30 14:16:32;;;;;;;;;;;;;;;;;;6175614;23;19919;-89
2022/05/30 14:19:00;;;;;;;;;;;;;;;;;;6179314;23;19965;-90
2022/05/30 14:21:26;;;;;;;;;;;;;;;;;;6179823;23;19916;-90
2022/05/30 14:23:54;;;;;;;;;;;;;;;;;;6205315;23;19929;-90
2022/05/30 14:26:20;;;;;;;;;;;;;;;;;;6178125;23;19924;-89
2022/05/30 14:28:47;;;;;;;;;;;;;;;;;;6205619;23;19961;-90
2022/05/30 14:31:13;;;;;;;;;;;;;;;;;;6204549;23;19916;-90
2022/05/30 14:33:39;;;;;;;;;;;;;;;;;;6203776;23;20369;-91
2022/05/30 14:36:05;;;;;;;;;;;;;;;;;;6205055;23;19920;-90
2022/05/30 14:38:31;;;;;;;;;;;;;;;;;;6201598;23;19955;-90
2022/05/30 14:40:56;;;;;;;;;;;;;;;;;;6179397;23;19919;-90
2022/05/30 14:43:23;;;;;;;;;;;;;;;;;;6173072;23;19939;-90
2022/05/30 14:45:48;;;;;;;;;;;;;;;;;;6178223;23;20251;-91
2022/05/30 14:48:14;;;;;;;;;;;;;;;;;;6177973;23;20010;-90
2022/05/30 14:50:41;;;;;;;;;;;;;;;;;;6201547;23;20630;-89
2022/05/30 14:53:07;;;;;;;;;;;;;;;;;;6203644;23;20285;-90
2022/05/30 14:55:33;;;;;;;;;;;;;;;;;;6176770;23;19990;-91
2022/05/30 14:57:59;;;;;;;;;;;;;;;;;;6179848;23;19920;-90
2022/05/30 15:00:25;;;;;;;;;;;;;;;;;;6203769;23;19919;-91
2022/05/30 15:05:36;;;;;;;;;;;;;;;;;;6203498;23;20046;-90
2022/05/30 15:08:02;;;;;;;;;;;;;;;;;;6204734;23;20346;-90
2022/05/30 15:10:28;;;;;;;;;;;;;;;;;;6181252;23;19949;-91
2022/05/30 15:12:54;;;;;;;;;;;;;;;;;;6208087;23;19916;-91
2022/05/30 15:15:20;;;;;;;;;;;;;;;;;;6208385;23;19920;-91
2022/05/30 15:17:48;;;;;;;;;;;;;;;;;;6185146;23;19989;-90
2022/05/30 15:20:14;;;;;;;;;;;;;;;;;;6184284;23;19920;-91
2022/05/30 15:22:40;;;;;;;;;;;;;;;;;;6182837;23;20026;-91
2022/05/30 15:25:06;;;;;;;;;;;;;;;;;;6185351;23;19954;-90
2022/05/30 15:27:32;;;;;;;;;;;;;;;;;;6206023;23;19969;-90
2022/05/30 15:29:58;;;;;;;;;;;;;;;;;;6183159;23;19923;-91
2022/05/30 15:32:24;;;;;;;;;;;;;;;;;;6180465;23;19919;-90
2022/05/30 15:34:50;;;;;;;;;;;;;;;;;;6182796;23;19919;-90
2022/05/30 15:37:18;;;;;;;;;;;;;;;;;;6182874;23;20256;-90
2022/05/30 15:39:44;;;;;;;;;;;;;;;;;;6207317;23;19920;-90
2022/05/30 15:42:10;;;;;;;;;;;;;;;;;;6183389;23;19924;-90
2022/05/30 15:44:36;;;;;;;;;;;;;;;;;;6181807;23;19926;-90
2022/05/30 15:47:02;;;;;;;;;;;;;;;;;;6184774;23;20398;-90
2022/05/30 15:49:28;;;;;;;;;;;;;;;;;;6206275;23;19920;-90
2022/05/30 15:51:54;;;;;;;;;;;;;;;;;;6207282;22;19922;-90
2022/05/30 15:57:20;;;;;;;;;;;;;;;;;;6206954;23;19970;-90
2022/05/30 15:59:46;;;;;;;;;;;;;;;;;;6183913;23;19998;-91
2022/05/30 16:02:12;;;;;;;;;;;;;;;;;;6183142;23;20660;-90
2022/05/30 16:04:37;;;;;;;;;;;;;;;;;;6179854;23;19919;-89
2022/05/30 16:07:03;;;;;;;;;;;;;;;;;;6181175;23;19923;-90
2022/05/30 16:09:29;;;;;;;;;;;;;;;;;;6178483;23;19928;-91
2022/05/30 16:11:56;;;;;;;;;;;;;;;;;;6211231;23;20336;-90
2022/05/30 16:14:23;;;;;;;;;;;;;;;;;;6206505;23;19919;-92
2022/05/30 16:16:49;;;;;;;;;;;;;;;;;;6180640;23;19919;-91
2022/05/30 16:19:15;;;;;;;;;;;;;;;;;;6182813;23;19922;-90
2022/05/30 16:21:41;;;;;;;;;;;;;;;;;;6204286;23;19920;-90
2022/05/30 16:24:07;;;;;;;;;;;;;;;;;;6207463;23;19922;-91
2022/05/30 16:26:33;;;;;;;;;;;;;;;;;;6205801;23;19919;-90
2022/05/30 16:28:59;;;;;;;;;;;;;;;;;;6182542;23;20011;-90
2022/05/30 16:31:25;;;;;;;;;;;;;;;;;;6204954;23;19930;-91
2022/05/30 16:33:51;;;;;;;;;;;;;;;;;;6180063;23;19926;-91
2022/05/30 16:36:17;;;;;;;;;;;;;;;;;;6208407;23;19920;-91
2022/05/30 16:38:42;;;;;;;;;;;;;;;;;;6203643;23;19920;-89
2022/05/30 16:41:08;;;;;;;;;;;;;;;;;;6181021;23;19920;-89
2022/05/30 16:43:36;;;;;;;;;;;;;;;;;;6204067;23;20376;-90
2022/05/30 16:46:02;;;;;;;;;;;;;;;;;;6204193;23;19919;-90
2022/05/30 16:48:28;;;;;;;;;;;;;;;;;;6182010;23;19955;-91
2022/05/30 16:50:54;;;;;;;;;;;;;;;;;;6183863;23;19931;-90
2022/05/30 16:53:20;;;;;;;;;;;;;;;;;;6207660;23;20517;-90
2022/05/30 16:55:46;;;;;;;;;;;;;;;;;;6183068;23;19923;-90
2022/05/30 16:58:12;;;;;;;;;;;;;;;;;;6183341;23;19919;-90
2022/05/30 17:00:38;;;;;;;;;;;;;;;;;;6178852;23;20703;-90
2022/05/30 17:03:04;;;;;;;;;;;;;;;;;;6182575;23;20061;-90
2022/05/30 17:05:30;;;;;;;;;;;;;;;;;;6179637;23;19924;-89
2022/05/30 17:07:56;;;;;;;;;;;;;;;;;;6206700;23;19919;-90
2022/05/30 17:10:22;;;;;;;;;;;;;;;;;;6203942;23;19931;-90
2022/05/30 17:12:48;;;;;;;;;;;;;;;;;;6204765;23;19920;-90
2022/05/30 17:15:14;;;;;;;;;;;;;;;;;;6203309;23;20374;-90